Terminal Aerodrome Forecast
Issued by NWS Albany, NY

Current Version | Previous Version | Text Only | Print | Product List | Glossary On
Versions: 1 2 3 4 5 6 7 8 9 10 11 12 13 14 15 16 17 18 19 20 21 22 23 24 25 26 27 28 29 30 31 32 33 34 35 36 37 38
000
FTUS41 KALY 181101 AAG
TAFGFL
TAF AMD
KGFL 181101Z 1811/1906 00000KT 1/2SM FZFG VV005
     FM181200 26005KT P6SM SCT090
     FM181600 28009KT P6SM SCT040
     FM182200 25006KT P6SM FEW250=

USA.gov is the U.S. government's official web portal to all federal, state and local government web resources and services.